createdAt,value
2018-06-15T00:00:13.337Z,86.70
2018-06-15T00:02:41.907Z,86.60
2018-06-15T00:05:10.453Z,86.40
2018-06-15T00:07:39.006Z,86.80
2018-06-15T00:10:07.568Z,86.60
2018-06-15T00:12:36.075Z,86.80
2018-06-15T00:15:04.669Z,86.50
2018-06-15T00:17:33.178Z,87.00
2018-06-15T00:22:29.914Z,87.20
2018-06-15T00:24:58.417Z,88.20
2018-06-15T00:27:26.950Z,88.60
2018-06-15T00:29:55.485Z,89.30
2018-06-15T00:32:24.041Z,88.90
2018-06-15T00:34:52.590Z,89.50
2018-06-15T00:39:49.308Z,90.00
2018-06-15T00:42:17.828Z,90.20
2018-06-15T00:47:14.562Z,90.50
2018-06-15T00:49:43.093Z,90.50
2018-06-15T00:52:11.633Z,90.40
2018-06-15T00:54:40.204Z,90.70
2018-06-15T00:57:20.149Z,90.70
2018-06-15T00:59:48.710Z,90.70
2018-06-15T01:02:17.236Z,90.90
2018-06-15T01:04:45.797Z,91.00
2018-06-15T01:07:14.345Z,91.10
2018-06-15T01:09:42.861Z,91.30
2018-06-15T01:12:11.421Z,91.70
2018-06-15T01:14:39.950Z,91.90
2018-06-15T01:17:08.466Z,91.70
2018-06-15T01:19:37.012Z,92.00
2018-06-15T01:22:05.496Z,91.70
2018-06-15T01:24:34.024Z,91.70
2018-06-15T01:27:02.555Z,91.70
2018-06-15T01:29:31.089Z,91.80
2018-06-15T01:31:59.638Z,91.60
2018-06-15T01:34:28.179Z,91.80
2018-06-15T01:36:56.712Z,92.10
2018-06-15T01:39:25.233Z,91.90
2018-06-15T01:41:53.760Z,91.90
2018-06-15T01:44:22.279Z,91.80
2018-06-15T01:46:50.823Z,92.00
2018-06-15T01:49:19.375Z,92.10
2018-06-15T01:51:47.917Z,91.80
2018-06-15T01:54:16.484Z,92.10
2018-06-15T01:56:44.996Z,91.90
2018-06-15T01:59:13.561Z,92.20
2018-06-15T02:01:42.120Z,92.20
2018-06-15T02:04:10.691Z,92.20
2018-06-15T02:06:39.302Z,92.20
2018-06-15T02:09:09.053Z,92.30
2018-06-15T02:11:37.634Z,92.50
2018-06-15T02:14:06.208Z,92.40
2018-06-15T02:16:34.729Z,92.60
2018-06-15T02:19:03.288Z,92.20
2018-06-15T02:24:00.030Z,92.80
2018-06-15T02:26:28.568Z,92.50
2018-06-15T02:28:57.153Z,92.60
2018-06-15T02:31:25.680Z,92.50
2018-06-15T02:33:54.611Z,92.50
2018-06-15T02:36:23.156Z,92.60
2018-06-15T02:38:51.688Z,92.50
2018-06-15T02:41:20.264Z,92.40
2018-06-15T02:43:48.810Z,92.60
2018-06-15T02:46:17.352Z,92.90
2018-06-15T02:48:45.916Z,93.20
2018-06-15T02:51:14.566Z,93.10
2018-06-15T02:53:43.090Z,92.90
2018-06-15T02:56:11.656Z,92.80
2018-06-15T02:58:40.226Z,92.70
2018-06-15T03:01:08.799Z,92.70
2018-06-15T03:03:37.312Z,92.70
2018-06-15T03:06:05.900Z,92.60
2018-06-15T03:08:34.459Z,91.80
2018-06-15T03:11:03.067Z,91.30
2018-06-15T03:13:31.534Z,92.60
2018-06-15T03:16:00.049Z,92.10
2018-06-15T03:18:28.591Z,92.10
2018-06-15T03:20:57.156Z,92.00
2018-06-15T03:23:25.658Z,92.10
2018-06-15T03:25:54.209Z,92.10
2018-06-15T03:28:22.692Z,92.50
2018-06-15T03:30:51.248Z,92.80
2018-06-15T03:33:19.794Z,92.70
2018-06-15T03:35:48.316Z,92.10
2018-06-15T03:38:16.876Z,92.50
2018-06-15T03:40:45.404Z,92.40
2018-06-15T03:43:13.908Z,92.20
2018-06-15T03:45:42.462Z,91.90
2018-06-15T03:48:10.999Z,92.20
2018-06-15T03:50:39.529Z,92.40
2018-06-15T03:53:08.054Z,92.20
2018-06-15T03:55:36.566Z,92.20
2018-06-15T03:58:05.061Z,92.50
2018-06-15T04:00:33.622Z,92.60
2018-06-15T04:03:02.162Z,92.90
2018-06-15T04:05:30.713Z,93.00
2018-06-15T04:07:59.261Z,93.40
2018-06-15T04:10:27.806Z,93.20
2018-06-15T04:12:56.390Z,93.30
2018-06-15T04:15:24.896Z,93.60
2018-06-15T04:18:02.468Z,93.50
2018-06-15T04:22:59.250Z,93.00
2018-06-15T04:25:28.211Z,92.80
2018-06-15T04:27:56.850Z,93.30
2018-06-15T04:30:25.404Z,93.40
2018-06-15T04:32:53.942Z,93.70
2018-06-15T04:35:28.898Z,94.20
2018-06-15T04:37:57.447Z,93.80
2018-06-15T04:40:25.989Z,93.80
2018-06-15T04:42:54.504Z,93.80
2018-06-15T04:45:23.027Z,93.90
2018-06-15T04:47:51.565Z,93.70
2018-06-15T04:50:20.061Z,93.60
2018-06-15T04:52:48.595Z,93.20
2018-06-15T04:55:17.127Z,93.60
2018-06-15T04:57:45.643Z,92.50
2018-06-15T05:00:14.169Z,93.00
2018-06-15T05:02:42.695Z,92.30
2018-06-15T05:10:07.622Z,92.80
2018-06-15T05:12:36.167Z,94.20
2018-06-15T05:15:04.843Z,94.20
2018-06-15T05:17:33.362Z,94.20
2018-06-15T05:20:01.886Z,94.00
2018-06-15T05:22:30.425Z,93.70
2018-06-15T05:24:58.936Z,93.20
2018-06-15T05:27:27.468Z,93.00
2018-06-15T05:29:55.972Z,93.00
2018-06-15T05:32:24.535Z,93.50
2018-06-15T05:34:53.025Z,93.70
2018-06-15T05:37:21.529Z,93.00
2018-06-15T05:39:50.117Z,92.90
2018-06-15T05:42:18.603Z,92.70
2018-06-15T05:44:47.103Z,93.50
2018-06-15T05:47:15.776Z,91.90
2018-06-15T05:49:44.373Z,92.10
2018-06-15T05:52:12.918Z,91.00
2018-06-15T05:57:10.280Z,91.20
2018-06-15T05:59:38.800Z,90.10
2018-06-15T06:02:07.380Z,86.40
2018-06-15T06:04:35.923Z,88.30
2018-06-15T06:07:04.466Z,86.30
2018-06-15T06:09:32.990Z,80.80
2018-06-15T06:12:01.528Z,79.50
2018-06-15T06:14:30.066Z,79.80
2018-06-15T06:16:58.596Z,80.80
2018-06-15T06:19:27.194Z,81.80
2018-06-15T06:24:23.879Z,87.90
2018-06-15T06:26:52.479Z,85.70
2018-06-15T06:29:21.034Z,79.20
2018-06-15T06:31:49.562Z,79.80
2018-06-15T06:34:18.088Z,82.30
2018-06-15T06:39:14.780Z,80.40
2018-06-15T06:41:43.546Z,78.80
2018-06-15T06:46:40.390Z,76.80
2018-06-15T06:49:08.896Z,81.50
2018-06-15T06:54:05.607Z,76.20
2018-06-15T06:56:34.124Z,76.00
2018-06-15T06:59:02.704Z,80.60
2018-06-15T07:01:31.222Z,79.50
2018-06-15T07:03:59.747Z,79.50
2018-06-15T07:06:28.244Z,79.30
2018-06-15T07:08:56.768Z,78.60
2018-06-15T07:11:25.292Z,76.20
2018-06-15T07:13:53.875Z,76.20
2018-06-15T07:16:22.390Z,79.10
2018-06-15T07:18:50.938Z,74.50
2018-06-15T07:23:47.710Z,77.10
2018-06-15T07:26:16.257Z,70.30
2018-06-15T07:28:44.824Z,75.60
2018-06-15T07:31:13.388Z,74.00
2018-06-15T07:33:41.931Z,73.10
2018-06-15T07:36:10.497Z,73.70
2018-06-15T07:38:39.040Z,70.80
2018-06-15T07:41:08.173Z,69.70
2018-06-15T07:43:36.699Z,73.00
2018-06-15T07:46:05.432Z,71.10
2018-06-15T07:48:33.889Z,69.50
2018-06-15T07:51:02.487Z,68.80
2018-06-15T07:58:27.480Z,67.90
2018-06-15T08:00:56.053Z,67.10
2018-06-15T08:03:24.572Z,67.20
2018-06-15T08:05:53.143Z,67.50
2018-06-15T08:08:21.723Z,66.80
2018-06-15T08:10:50.267Z,65.40
2018-06-15T08:13:18.800Z,67.70
2018-06-15T08:15:47.347Z,64.90
2018-06-15T08:18:15.895Z,65.20
2018-06-15T08:20:44.467Z,67.00
2018-06-15T08:23:13.001Z,67.40
2018-06-15T08:25:41.551Z,67.60
2018-06-15T08:28:10.122Z,67.70
2018-06-15T08:30:38.702Z,67.30
2018-06-15T08:33:07.261Z,67.00
2018-06-15T08:35:35.773Z,66.60
2018-06-15T08:38:04.336Z,67.20
2018-06-15T08:40:33.304Z,69.50
2018-06-15T08:45:30.049Z,66.30
2018-06-15T08:47:58.656Z,67.10
2018-06-15T08:50:27.194Z,67.10
2018-06-15T08:52:55.755Z,67.90
2018-06-15T08:55:24.299Z,68.50
2018-06-15T08:57:52.827Z,66.40
2018-06-15T09:00:21.361Z,64.10
2018-06-15T09:02:49.901Z,66.00
2018-06-15T09:05:18.496Z,67.40
2018-06-15T09:07:47.067Z,69.20
2018-06-15T09:12:43.767Z,64.30
2018-06-15T09:15:12.312Z,63.70
2018-06-15T09:20:09.037Z,65.10
2018-06-15T09:22:37.604Z,67.20
2018-06-15T09:25:06.233Z,65.30
2018-06-15T09:27:34.814Z,68.90
2018-06-15T09:30:03.414Z,66.30
2018-06-15T09:32:32.071Z,65.70
2018-06-15T09:35:00.620Z,65.80
2018-06-15T09:37:29.224Z,62.90
2018-06-15T09:39:57.816Z,59.80
2018-06-15T09:42:26.381Z,60.60
2018-06-15T09:44:54.906Z,59.90
2018-06-15T09:47:23.446Z,61.10
2018-06-15T09:49:52.041Z,60.50
2018-06-15T09:52:20.587Z,62.60
2018-06-15T09:54:49.281Z,64.30
2018-06-15T09:57:17.820Z,60.10
2018-06-15T09:59:46.344Z,61.90
2018-06-15T10:02:14.896Z,62.30
2018-06-15T10:04:43.471Z,61.40
2018-06-15T10:07:12.015Z,65.50
2018-06-15T10:09:40.590Z,64.00
2018-06-15T10:12:09.181Z,63.10
2018-06-15T10:14:37.749Z,61.30
2018-06-15T10:17:06.323Z,61.30
2018-06-15T10:19:34.892Z,61.20
2018-06-15T10:22:03.476Z,66.00
2018-06-15T10:27:00.255Z,61.70
2018-06-15T10:29:28.883Z,60.00
2018-06-15T10:31:57.393Z,59.70
2018-06-15T10:34:25.951Z,60.10
2018-06-15T10:36:54.501Z,60.90
2018-06-15T10:39:23.132Z,60.40
2018-06-15T10:41:51.696Z,63.00
2018-06-15T10:44:20.255Z,59.10
2018-06-15T10:46:48.809Z,59.40
2018-06-15T10:49:17.390Z,59.50
2018-06-15T10:51:45.930Z,60.70
2018-06-15T10:54:14.450Z,62.60
2018-06-15T10:56:42.997Z,58.70
2018-06-15T11:01:39.696Z,58.70
2018-06-15T11:04:08.241Z,58.40
2018-06-15T11:09:07.192Z,58.00
2018-06-15T11:11:35.837Z,62.40
2018-06-15T11:16:32.605Z,58.40
2018-06-15T11:19:01.232Z,61.30
2018-06-15T11:21:29.829Z,57.70
2018-06-15T11:23:58.453Z,59.10
2018-06-15T11:26:27.041Z,59.40
2018-06-15T11:28:55.613Z,58.60
2018-06-15T11:31:24.154Z,58.60
2018-06-15T11:33:52.754Z,58.00
2018-06-15T11:36:21.339Z,57.00
2018-06-15T11:38:49.857Z,56.10
2018-06-15T11:41:18.577Z,57.30
2018-06-15T11:43:47.070Z,57.20
2018-06-15T11:46:15.626Z,55.50
2018-06-15T11:48:44.182Z,56.30
2018-06-15T11:51:12.708Z,56.10
2018-06-15T11:53:41.283Z,55.40
2018-06-15T11:56:09.815Z,57.60
2018-06-15T11:58:38.343Z,53.30
2018-06-15T12:01:07.030Z,53.40
2018-06-15T12:03:35.647Z,53.50
2018-06-15T12:06:04.211Z,52.40
2018-06-15T12:08:32.824Z,53.00
2018-06-15T12:11:01.405Z,52.90
2018-06-15T12:13:29.949Z,53.00
2018-06-15T12:15:58.491Z,54.00
2018-06-15T12:18:27.044Z,55.90
2018-06-15T12:20:55.692Z,54.30
2018-06-15T12:23:24.223Z,54.30
2018-06-15T12:25:52.808Z,52.10
2018-06-15T12:28:21.403Z,50.80
2018-06-15T12:30:49.979Z,49.90
2018-06-15T12:33:18.517Z,51.60
2018-06-15T12:35:47.023Z,50.20
2018-06-15T12:38:15.562Z,49.40
2018-06-15T12:40:44.180Z,48.70
2018-06-15T12:43:12.716Z,50.50
2018-06-15T12:45:41.332Z,47.60
2018-06-15T12:48:12.698Z,50.40
2018-06-15T12:50:41.285Z,49.30
2018-06-15T12:53:09.801Z,49.00
2018-06-15T12:55:38.443Z,47.70
2018-06-15T12:58:06.990Z,48.00
2018-06-15T13:00:35.529Z,49.60
2018-06-15T13:03:04.146Z,48.00
2018-06-15T13:05:32.674Z,47.60
2018-06-15T13:08:01.269Z,50.60
2018-06-15T13:10:29.771Z,47.90
2018-06-15T13:12:58.340Z,45.90
2018-06-15T13:15:26.884Z,47.50
2018-06-15T13:17:55.474Z,47.50
2018-06-15T13:20:24.036Z,48.20
2018-06-15T13:22:52.600Z,47.20
2018-06-15T13:25:21.212Z,48.00
2018-06-15T13:27:49.803Z,48.00
2018-06-15T13:30:18.392Z,46.20
2018-06-15T13:32:46.993Z,45.70
2018-06-15T13:35:15.619Z,47.50
2018-06-15T13:37:44.156Z,45.00
2018-06-15T13:40:12.745Z,45.20
2018-06-15T13:42:41.313Z,45.10
2018-06-15T13:45:09.868Z,48.40
2018-06-15T13:47:38.432Z,47.10
2018-06-15T13:50:07.121Z,46.60
2018-06-15T13:52:35.665Z,45.90
2018-06-15T13:55:04.294Z,46.70
2018-06-15T13:57:32.831Z,45.80
2018-06-15T14:00:01.391Z,44.10
2018-06-15T14:02:29.956Z,46.10
2018-06-15T14:07:26.760Z,43.80
2018-06-15T14:09:55.364Z,46.30
2018-06-15T14:12:23.876Z,46.50
2018-06-15T14:14:52.418Z,44.70
2018-06-15T14:17:21.084Z,44.10
2018-06-15T14:19:49.647Z,45.00
2018-06-15T14:24:46.425Z,44.50
2018-06-15T14:27:14.956Z,44.40
2018-06-15T14:29:43.544Z,43.00
2018-06-15T14:32:12.066Z,42.90
2018-06-15T14:34:41.313Z,43.60
2018-06-15T14:37:09.926Z,42.60
2018-06-15T14:39:38.469Z,42.40
2018-06-15T14:42:07.025Z,41.10
2018-06-15T14:44:35.570Z,40.10
2018-06-15T14:47:04.211Z,43.00
2018-06-15T14:49:32.767Z,40.00
2018-06-15T14:52:01.273Z,42.30
2018-06-15T14:54:29.884Z,38.30
2018-06-15T14:56:58.487Z,37.50
2018-06-15T14:59:27.053Z,38.10
2018-06-15T15:01:55.698Z,38.70
2018-06-15T15:04:24.285Z,39.20
2018-06-15T15:06:52.887Z,39.90
2018-06-15T15:09:21.440Z,39.50
2018-06-15T15:11:50.023Z,40.00
2018-06-15T15:14:18.578Z,40.30
2018-06-15T15:19:15.363Z,39.70
2018-06-15T15:21:43.904Z,41.70
2018-06-15T15:24:12.486Z,40.40
2018-06-15T15:26:41.071Z,39.80
2018-06-15T15:29:09.638Z,40.30
2018-06-15T15:31:38.253Z,38.80
2018-06-15T15:34:06.855Z,37.80
2018-06-15T15:36:35.428Z,40.00
2018-06-15T15:39:05.909Z,37.80
2018-06-15T15:44:02.666Z,40.30
2018-06-15T15:46:31.247Z,38.60
2018-06-15T15:48:59.824Z,41.10
2018-06-15T15:51:28.413Z,41.30
2018-06-15T15:53:56.995Z,39.10
2018-06-15T15:56:25.637Z,38.80
2018-06-15T15:58:54.189Z,40.40
2018-06-15T16:01:22.741Z,38.90
2018-06-15T16:03:51.317Z,39.50
2018-06-15T16:06:19.871Z,40.20
2018-06-15T16:08:48.462Z,40.90
2018-06-15T16:11:17.327Z,41.40
2018-06-15T16:16:14.134Z,41.60
2018-06-15T16:18:42.680Z,42.30
2018-06-15T16:21:11.269Z,43.50
2018-06-15T16:23:39.814Z,44.80
2018-06-15T16:26:08.431Z,44.90
2018-06-15T16:28:37.063Z,45.20
2018-06-15T16:31:05.636Z,45.10
2018-06-15T16:36:02.411Z,46.30
2018-06-15T16:38:31.031Z,47.10
2018-06-15T16:40:59.608Z,47.40
2018-06-15T16:43:28.192Z,47.20
2018-06-15T16:45:56.692Z,47.10
2018-06-15T16:48:25.268Z,46.90
2018-06-15T16:50:53.782Z,49.30
2018-06-15T16:53:22.325Z,46.90
2018-06-15T16:55:50.907Z,47.50
2018-06-15T16:58:19.454Z,46.40
2018-06-15T17:00:47.989Z,47.00
2018-06-15T17:03:16.634Z,47.00
2018-06-15T17:05:45.200Z,47.70
2018-06-15T17:08:13.814Z,46.50
2018-06-15T17:10:42.442Z,47.00
2018-06-15T17:13:11.096Z,45.90
2018-06-15T17:15:39.647Z,45.70
2018-06-15T17:18:08.160Z,46.90
2018-06-15T17:20:36.716Z,46.60
2018-06-15T17:23:05.256Z,45.70
2018-06-15T17:28:01.985Z,46.20
2018-06-15T17:30:30.552Z,45.90
2018-06-15T17:32:59.163Z,46.00
2018-06-15T17:35:27.728Z,46.90
2018-06-15T17:37:56.284Z,47.10
2018-06-15T17:42:53.031Z,46.20
2018-06-15T17:47:49.845Z,47.10
2018-06-15T17:50:18.432Z,46.70
2018-06-15T17:52:47.004Z,47.60
2018-06-15T17:55:15.575Z,47.70
2018-06-15T17:57:44.147Z,47.70
2018-06-15T18:00:12.708Z,49.10
2018-06-15T18:02:41.242Z,48.40
2018-06-15T18:07:37.986Z,49.60
2018-06-15T18:10:06.638Z,49.70
2018-06-15T18:12:35.262Z,49.60
2018-06-15T18:15:03.923Z,51.00
2018-06-15T18:17:32.460Z,52.30
2018-06-15T18:20:01.046Z,51.50
2018-06-15T18:22:29.575Z,53.40
2018-06-15T18:24:58.167Z,51.60
2018-06-15T18:27:26.697Z,50.80
2018-06-15T18:34:51.655Z,50.60
2018-06-15T18:37:20.227Z,50.80
2018-06-15T18:39:48.793Z,49.80
2018-06-15T18:42:17.327Z,51.60
2018-06-15T18:47:14.042Z,50.30
2018-06-15T18:49:42.563Z,50.30
2018-06-15T18:52:11.118Z,50.20
2018-06-15T18:54:39.699Z,50.60
2018-06-15T18:57:08.215Z,51.20
2018-06-15T18:59:37.047Z,50.50
2018-06-15T19:02:05.644Z,51.10
2018-06-15T19:04:34.192Z,51.00
2018-06-15T19:09:30.890Z,51.40
2018-06-15T19:11:59.401Z,50.80
2018-06-15T19:14:27.951Z,51.20
2018-06-15T19:16:56.488Z,51.80
2018-06-15T19:19:25.018Z,51.90
2018-06-15T19:21:53.551Z,51.70
2018-06-15T19:24:22.086Z,51.80
2018-06-15T19:26:50.644Z,52.40
2018-06-15T19:29:19.138Z,53.50
2018-06-15T19:31:47.670Z,52.60
2018-06-15T19:34:16.208Z,51.50
2018-06-15T19:36:44.709Z,51.40
2018-06-15T19:39:13.251Z,52.10
2018-06-15T19:41:41.781Z,53.40
2018-06-15T19:46:38.502Z,55.00
2018-06-15T19:49:07.082Z,54.50
2018-06-15T19:51:35.710Z,56.60
2018-06-15T19:54:04.311Z,56.80
2018-06-15T20:01:29.255Z,56.40
2018-06-15T20:06:25.976Z,57.70
2018-06-15T20:08:54.495Z,57.70
2018-06-15T20:13:51.429Z,58.80
2018-06-15T20:16:19.967Z,60.10
2018-06-15T20:23:44.845Z,59.80
2018-06-15T20:26:13.361Z,59.90
2018-06-15T20:28:41.888Z,61.10
2018-06-15T20:31:10.484Z,61.90
2018-06-15T20:33:38.962Z,62.60
2018-06-15T20:43:32.040Z,63.70
2018-06-15T20:46:00.617Z,64.70
2018-06-15T20:48:29.147Z,66.00
2018-06-15T20:50:57.703Z,66.40
2018-06-15T20:53:26.237Z,66.50
2018-06-15T21:00:51.161Z,67.00
2018-06-15T21:03:19.658Z,67.30
2018-06-15T21:05:48.166Z,68.50
2018-06-15T21:08:16.680Z,67.80
2018-06-15T21:10:45.196Z,68.10
2018-06-15T21:13:13.692Z,67.30
2018-06-15T21:15:42.204Z,68.30
2018-06-15T21:18:10.794Z,69.00
2018-06-15T21:20:39.327Z,69.60
2018-06-15T21:23:08.064Z,70.10
2018-06-15T21:28:04.901Z,71.20
2018-06-15T21:30:33.404Z,71.40
2018-06-15T21:35:30.080Z,70.00
2018-06-15T21:37:58.671Z,71.10
2018-06-15T21:40:27.316Z,70.90
2018-06-15T21:42:55.822Z,71.90
2018-06-15T21:45:24.379Z,71.90
2018-06-15T21:47:52.878Z,72.20
2018-06-15T21:50:21.452Z,73.10
2018-06-15T21:52:49.964Z,73.20
2018-06-15T21:55:18.473Z,73.40
2018-06-15T21:57:47.007Z,73.70
2018-06-15T22:00:15.497Z,73.70
2018-06-15T22:02:44.024Z,74.10
2018-06-15T22:05:12.537Z,75.10
2018-06-15T22:07:41.062Z,75.70
2018-06-15T22:10:09.693Z,75.60
2018-06-15T22:12:38.197Z,76.10
2018-06-15T22:15:06.753Z,76.50
2018-06-15T22:17:35.596Z,77.80
2018-06-15T22:20:04.455Z,77.50
2018-06-15T22:22:33.151Z,77.70
2018-06-15T22:25:03.016Z,77.90
2018-06-15T22:27:31.547Z,78.00
2018-06-15T22:30:00.491Z,77.90
2018-06-15T22:32:30.906Z,76.60
2018-06-15T22:34:59.518Z,76.00
2018-06-15T22:37:28.171Z,75.90
2018-06-15T22:39:58.120Z,75.90
2018-06-15T22:42:27.275Z,77.00
2018-06-15T22:44:55.963Z,76.40
2018-06-15T22:47:25.201Z,77.50
2018-06-15T22:49:53.896Z,77.70
2018-06-15T22:52:23.063Z,78.60
2018-06-15T22:54:51.608Z,79.20
2018-06-15T22:57:20.676Z,77.40
2018-06-15T22:59:51.363Z,76.80
2018-06-15T23:04:49.013Z,77.30
2018-06-15T23:07:19.026Z,78.50
2018-06-15T23:09:48.279Z,77.30
2018-06-15T23:12:18.689Z,76.40
2018-06-15T23:14:47.446Z,76.60
2018-06-15T23:17:17.738Z,77.00
2018-06-15T23:19:46.340Z,78.00
2018-06-15T23:22:14.832Z,77.10
2018-06-15T23:24:43.343Z,76.90
2018-06-15T23:27:11.876Z,75.40
2018-06-15T23:32:08.536Z,76.30
2018-06-15T23:34:37.068Z,76.10
2018-06-15T23:37:05.607Z,76.70
2018-06-15T23:39:34.142Z,75.30
2018-06-15T23:42:02.653Z,75.10
2018-06-15T23:44:31.185Z,74.70
2018-06-15T23:54:24.263Z,77.50
2018-06-15T23:56:52.818Z,76.50
2018-06-15T23:59:21.316Z,77.80
